sensor_id;sensor_type;location;lat;lon;timestamp;P1;durP1;ratioP1;P2;durP2;ratioP2
1935;SDS011;969;49.892;10.896;2024-02-04T00:00:14;1.10;;;0.90;;
1935;SDS011;969;49.892;10.896;2024-02-04T00:02:40;1.10;;;0.90;;
1935;SDS011;969;49.892;10.896;2024-02-04T00:05:05;1.83;;;1.07;;
1935;SDS011;969;49.892;10.896;2024-02-04T00:07:31;1.57;;;0.73;;
1935;SDS011;969;49.892;10.896;2024-02-04T00:09:57;1.40;;;1.17;;
1935;SDS011;969;49.892;10.896;2024-02-04T00:12:22;1.70;;;1.27;;
1935;SDS011;969;49.892;10.896;2024-02-04T00:14:48;1.47;;;1.20;;
1935;SDS011;969;49.892;10.896;2024-02-04T00:17:16;1.87;;;1.03;;
1935;SDS011;969;49.892;10.896;2024-02-04T00:19:42;1.30;;;0.90;;
1935;SDS011;969;49.892;10.896;2024-02-04T00:22:08;1.60;;;1.30;;
1935;SDS011;969;49.892;10.896;2024-02-04T00:24:34;1.43;;;1.00;;
1935;SDS011;969;49.892;10.896;2024-02-04T00:26:59;1.50;;;0.80;;
1935;SDS011;969;49.892;10.896;2024-02-04T00:29:25;1.20;;;1.00;;
1935;SDS011;969;49.892;10.896;2024-02-04T00:31:50;1.23;;;1.10;;
1935;SDS011;969;49.892;10.896;2024-02-04T00:34:16;1.43;;;1.00;;
1935;SDS011;969;49.892;10.896;2024-02-04T00:36:42;1.50;;;0.90;;
1935;SDS011;969;49.892;10.896;2024-02-04T00:39:07;1.20;;;0.90;;
1935;SDS011;969;49.892;10.896;2024-02-04T00:41:33;1.20;;;1.00;;
1935;SDS011;969;49.892;10.896;2024-02-04T00:44:00;1.93;;;0.97;;
1935;SDS011;969;49.892;10.896;2024-02-04T00:46:26;1.40;;;1.10;;
1935;SDS011;969;49.892;10.896;2024-02-04T00:48:51;2.00;;;1.00;;
1935;SDS011;969;49.892;10.896;2024-02-04T00:51:17;1.40;;;0.90;;
1935;SDS011;969;49.892;10.896;2024-02-04T00:53:44;0.90;;;0.80;;
1935;SDS011;969;49.892;10.896;2024-02-04T00:56:10;1.70;;;1.20;;
1935;SDS011;969;49.892;10.896;2024-02-04T00:58:36;1.40;;;1.03;;
1935;SDS011;969;49.892;10.896;2024-02-04T01:01:02;1.10;;;1.00;;
1935;SDS011;969;49.892;10.896;2024-02-04T01:03:28;1.70;;;1.17;;
1935;SDS011;969;49.892;10.896;2024-02-04T01:05:54;1.23;;;0.80;;
1935;SDS011;969;49.892;10.896;2024-02-04T01:08:21;1.27;;;1.10;;
1935;SDS011;969;49.892;10.896;2024-02-04T01:10:47;1.40;;;0.90;;
1935;SDS011;969;49.892;10.896;2024-02-04T01:13:13;1.60;;;1.10;;
1935;SDS011;969;49.892;10.896;2024-02-04T01:15:39;1.20;;;0.80;;
1935;SDS011;969;49.892;10.896;2024-02-04T01:18:04;1.20;;;0.87;;
1935;SDS011;969;49.892;10.896;2024-02-04T01:20:30;1.93;;;0.90;;
1935;SDS011;969;49.892;10.896;2024-02-04T01:22:56;1.10;;;0.87;;
1935;SDS011;969;49.892;10.896;2024-02-04T01:25:21;1.97;;;1.13;;
1935;SDS011;969;49.892;10.896;2024-02-04T01:27:47;2.40;;;1.13;;
1935;SDS011;969;49.892;10.896;2024-02-04T01:30:12;1.30;;;1.00;;
1935;SDS011;969;49.892;10.896;2024-02-04T01:32:38;1.57;;;0.90;;
1935;SDS011;969;49.892;10.896;2024-02-04T01:35:04;1.10;;;0.80;;
1935;SDS011;969;49.892;10.896;2024-02-04T01:37:30;1.00;;;0.73;;
1935;SDS011;969;49.892;10.896;2024-02-04T01:39:55;1.67;;;0.87;;
1935;SDS011;969;49.892;10.896;2024-02-04T01:42:21;0.97;;;0.70;;
1935;SDS011;969;49.892;10.896;2024-02-04T01:44:46;1.57;;;1.00;;
1935;SDS011;969;49.892;10.896;2024-02-04T01:47:12;1.10;;;0.80;;
1935;SDS011;969;49.892;10.896;2024-02-04T01:49:37;1.20;;;0.97;;
1935;SDS011;969;49.892;10.896;2024-02-04T01:52:03;1.47;;;1.10;;
1935;SDS011;969;49.892;10.896;2024-02-04T01:54:31;1.70;;;1.00;;
1935;SDS011;969;49.892;10.896;2024-02-04T01:56:58;1.73;;;0.97;;
1935;SDS011;969;49.892;10.896;2024-02-04T01:59:27;1.10;;;0.80;;
1935;SDS011;969;49.892;10.896;2024-02-04T02:01:55;0.80;;;0.70;;
1935;SDS011;969;49.892;10.896;2024-02-04T02:04:24;1.40;;;1.00;;
1935;SDS011;969;49.892;10.896;2024-02-04T02:06:50;1.10;;;0.97;;
1935;SDS011;969;49.892;10.896;2024-02-04T02:09:17;2.00;;;1.10;;
1935;SDS011;969;49.892;10.896;2024-02-04T02:11:44;1.10;;;0.87;;
1935;SDS011;969;49.892;10.896;2024-02-04T02:14:23;1.60;;;1.10;;
1935;SDS011;969;49.892;10.896;2024-02-04T02:16:51;1.23;;;1.00;;
1935;SDS011;969;49.892;10.896;2024-02-04T02:24:55;1.67;;;1.07;;
1935;SDS011;969;49.892;10.896;2024-02-04T02:27:22;1.40;;;0.90;;
1935;SDS011;969;49.892;10.896;2024-02-04T02:29:47;1.67;;;0.90;;
1935;SDS011;969;49.892;10.896;2024-02-04T02:32:13;1.00;;;0.80;;
1935;SDS011;969;49.892;10.896;2024-02-04T02:34:39;1.27;;;0.97;;
1935;SDS011;969;49.892;10.896;2024-02-04T02:39:45;1.00;;;0.70;;
1935;SDS011;969;49.892;10.896;2024-02-04T02:42:17;1.10;;;0.93;;
1935;SDS011;969;49.892;10.896;2024-02-04T02:44:44;1.30;;;0.90;;
1935;SDS011;969;49.892;10.896;2024-02-04T02:47:12;1.23;;;0.80;;
1935;SDS011;969;49.892;10.896;2024-02-04T02:49:39;1.00;;;0.90;;
1935;SDS011;969;49.892;10.896;2024-02-04T02:52:04;1.10;;;0.87;;
1935;SDS011;969;49.892;10.896;2024-02-04T02:54:30;0.90;;;0.70;;
1935;SDS011;969;49.892;10.896;2024-02-04T02:56:56;1.00;;;0.83;;
1935;SDS011;969;49.892;10.896;2024-02-04T02:59:21;1.40;;;0.90;;
1935;SDS011;969;49.892;10.896;2024-02-04T03:01:47;1.27;;;0.80;;
1935;SDS011;969;49.892;10.896;2024-02-04T03:04:13;0.90;;;0.73;;
1935;SDS011;969;49.892;10.896;2024-02-04T03:06:38;1.10;;;0.87;;
1935;SDS011;969;49.892;10.896;2024-02-04T03:09:04;1.17;;;1.00;;
1935;SDS011;969;49.892;10.896;2024-02-04T03:11:29;0.90;;;0.70;;
1935;SDS011;969;49.892;10.896;2024-02-04T03:13:55;1.23;;;0.93;;
1935;SDS011;969;49.892;10.896;2024-02-04T03:16:21;1.40;;;1.10;;
1935;SDS011;969;49.892;10.896;2024-02-04T03:18:47;1.00;;;0.70;;
1935;SDS011;969;49.892;10.896;2024-02-04T03:21:18;1.53;;;1.17;;
1935;SDS011;969;49.892;10.896;2024-02-04T03:23:46;1.30;;;0.80;;
1935;SDS011;969;49.892;10.896;2024-02-04T03:26:15;1.00;;;0.80;;
1935;SDS011;969;49.892;10.896;2024-02-04T03:28:43;0.90;;;0.80;;
1935;SDS011;969;49.892;10.896;2024-02-04T03:31:18;1.40;;;0.90;;
1935;SDS011;969;49.892;10.896;2024-02-04T03:33:45;1.70;;;0.90;;
1935;SDS011;969;49.892;10.896;2024-02-04T03:36:11;1.30;;;0.90;;
1935;SDS011;969;49.892;10.896;2024-02-04T03:38:39;1.10;;;0.77;;
1935;SDS011;969;49.892;10.896;2024-02-04T03:41:05;1.87;;;0.87;;
1935;SDS011;969;49.892;10.896;2024-02-04T03:43:30;1.10;;;0.90;;
1935;SDS011;969;49.892;10.896;2024-02-04T03:45:56;0.97;;;0.80;;
1935;SDS011;969;49.892;10.896;2024-02-04T03:48:22;0.90;;;0.60;;
1935;SDS011;969;49.892;10.896;2024-02-04T03:50:47;1.20;;;0.77;;
1935;SDS011;969;49.892;10.896;2024-02-04T03:53:13;1.37;;;0.83;;
1935;SDS011;969;49.892;10.896;2024-02-04T03:55:38;1.33;;;0.90;;
1935;SDS011;969;49.892;10.896;2024-02-04T03:58:04;1.57;;;0.80;;
1935;SDS011;969;49.892;10.896;2024-02-04T04:00:30;1.23;;;0.90;;
1935;SDS011;969;49.892;10.896;2024-02-04T04:02:55;1.23;;;0.80;;
1935;SDS011;969;49.892;10.896;2024-02-04T04:05:21;1.20;;;0.80;;
1935;SDS011;969;49.892;10.896;2024-02-04T04:07:47;1.13;;;0.90;;
1935;SDS011;969;49.892;10.896;2024-02-04T04:10:12;1.93;;;0.90;;
1935;SDS011;969;49.892;10.896;2024-02-04T04:12:38;1.00;;;0.80;;
1935;SDS011;969;49.892;10.896;2024-02-04T04:15:04;1.30;;;0.93;;
1935;SDS011;969;49.892;10.896;2024-02-04T04:17:30;1.00;;;0.70;;
1935;SDS011;969;49.892;10.896;2024-02-04T04:19:55;1.10;;;0.70;;
1935;SDS011;969;49.892;10.896;2024-02-04T04:22:21;1.47;;;0.90;;
1935;SDS011;969;49.892;10.896;2024-02-04T04:24:47;1.63;;;0.80;;
1935;SDS011;969;49.892;10.896;2024-02-04T04:27:12;1.00;;;0.70;;
1935;SDS011;969;49.892;10.896;2024-02-04T04:29:38;0.90;;;0.70;;
1935;SDS011;969;49.892;10.896;2024-02-04T04:32:04;1.10;;;0.90;;
1935;SDS011;969;49.892;10.896;2024-02-04T04:34:30;1.60;;;0.97;;
1935;SDS011;969;49.892;10.896;2024-02-04T04:36:55;1.13;;;0.90;;
1935;SDS011;969;49.892;10.896;2024-02-04T04:39:21;1.20;;;0.87;;
1935;SDS011;969;49.892;10.896;2024-02-04T04:41:47;1.20;;;0.80;;
1935;SDS011;969;49.892;10.896;2024-02-04T04:44:12;1.63;;;1.00;;
1935;SDS011;969;49.892;10.896;2024-02-04T04:46:38;1.10;;;0.93;;
1935;SDS011;969;49.892;10.896;2024-02-04T04:49:07;1.30;;;0.97;;
1935;SDS011;969;49.892;10.896;2024-02-04T04:51:33;1.10;;;0.80;;
1935;SDS011;969;49.892;10.896;2024-02-04T04:53:58;0.90;;;0.70;;
1935;SDS011;969;49.892;10.896;2024-02-04T04:56:24;0.90;;;0.67;;
1935;SDS011;969;49.892;10.896;2024-02-04T04:58:50;1.20;;;0.80;;
1935;SDS011;969;49.892;10.896;2024-02-04T05:01:15;1.23;;;0.80;;
1935;SDS011;969;49.892;10.896;2024-02-04T05:03:41;0.97;;;0.80;;
1935;SDS011;969;49.892;10.896;2024-02-04T05:06:07;1.00;;;0.80;;
1935;SDS011;969;49.892;10.896;2024-02-04T05:08:33;1.00;;;0.90;;
1935;SDS011;969;49.892;10.896;2024-02-04T05:10:58;1.30;;;0.70;;
1935;SDS011;969;49.892;10.896;2024-02-04T05:13:24;1.00;;;0.70;;
1935;SDS011;969;49.892;10.896;2024-02-04T05:15:50;1.20;;;0.80;;
1935;SDS011;969;49.892;10.896;2024-02-04T05:18:15;1.47;;;0.90;;
1935;SDS011;969;49.892;10.896;2024-02-04T05:20:41;1.67;;;0.97;;
1935;SDS011;969;49.892;10.896;2024-02-04T05:23:08;1.53;;;0.97;;
1935;SDS011;969;49.892;10.896;2024-02-04T05:25:34;2.07;;;1.20;;
1935;SDS011;969;49.892;10.896;2024-02-04T05:28:00;1.70;;;1.00;;
1935;SDS011;969;49.892;10.896;2024-02-04T05:30:25;1.17;;;0.90;;
1935;SDS011;969;49.892;10.896;2024-02-04T05:32:51;1.00;;;0.70;;
1935;SDS011;969;49.892;10.896;2024-02-04T05:35:17;1.87;;;0.80;;
1935;SDS011;969;49.892;10.896;2024-02-04T05:37:42;1.10;;;0.70;;
1935;SDS011;969;49.892;10.896;2024-02-04T05:40:08;1.07;;;0.90;;
1935;SDS011;969;49.892;10.896;2024-02-04T05:42:34;0.90;;;0.67;;
1935;SDS011;969;49.892;10.896;2024-02-04T05:45:00;1.27;;;0.90;;
1935;SDS011;969;49.892;10.896;2024-02-04T05:47:26;1.10;;;0.80;;
1935;SDS011;969;49.892;10.896;2024-02-04T05:49:51;1.37;;;0.87;;
1935;SDS011;969;49.892;10.896;2024-02-04T05:52:17;0.80;;;0.70;;
1935;SDS011;969;49.892;10.896;2024-02-04T05:54:43;0.97;;;0.70;;
1935;SDS011;969;49.892;10.896;2024-02-04T05:57:09;1.13;;;0.80;;
1935;SDS011;969;49.892;10.896;2024-02-04T05:59:36;1.23;;;0.80;;
1935;SDS011;969;49.892;10.896;2024-02-04T06:02:03;1.07;;;0.80;;
1935;SDS011;969;49.892;10.896;2024-02-04T06:04:29;1.00;;;0.90;;
1935;SDS011;969;49.892;10.896;2024-02-04T06:06:55;0.90;;;0.70;;
1935;SDS011;969;49.892;10.896;2024-02-04T06:09:21;1.20;;;0.70;;
1935;SDS011;969;49.892;10.896;2024-02-04T06:11:46;1.10;;;0.70;;
1935;SDS011;969;49.892;10.896;2024-02-04T06:14:12;1.00;;;0.70;;
1935;SDS011;969;49.892;10.896;2024-02-04T06:16:38;1.67;;;0.80;;
1935;SDS011;969;49.892;10.896;2024-02-04T06:19:03;1.00;;;0.80;;
1935;SDS011;969;49.892;10.896;2024-02-04T06:21:30;1.27;;;0.70;;
1935;SDS011;969;49.892;10.896;2024-02-04T06:23:56;1.03;;;0.80;;
1935;SDS011;969;49.892;10.896;2024-02-04T06:26:21;1.50;;;1.07;;
1935;SDS011;969;49.892;10.896;2024-02-04T06:28:47;1.00;;;0.70;;
1935;SDS011;969;49.892;10.896;2024-02-04T06:31:14;1.17;;;0.93;;
1935;SDS011;969;49.892;10.896;2024-02-04T06:33:39;1.10;;;0.90;;
1935;SDS011;969;49.892;10.896;2024-02-04T06:36:09;0.90;;;0.70;;
1935;SDS011;969;49.892;10.896;2024-02-04T06:38:35;1.00;;;0.80;;
1935;SDS011;969;49.892;10.896;2024-02-04T06:41:01;0.90;;;0.67;;
1935;SDS011;969;49.892;10.896;2024-02-04T06:43:27;1.10;;;0.80;;
1935;SDS011;969;49.892;10.896;2024-02-04T06:45:52;1.07;;;0.70;;
1935;SDS011;969;49.892;10.896;2024-02-04T06:48:21;1.03;;;0.80;;
1935;SDS011;969;49.892;10.896;2024-02-04T06:50:47;1.17;;;0.80;;
1935;SDS011;969;49.892;10.896;2024-02-04T06:53:15;1.00;;;0.90;;
1935;SDS011;969;49.892;10.896;2024-02-04T06:55:41;1.50;;;0.97;;
1935;SDS011;969;49.892;10.896;2024-02-04T06:58:06;1.00;;;0.80;;
1935;SDS011;969;49.892;10.896;2024-02-04T07:00:32;0.90;;;0.70;;
1935;SDS011;969;49.892;10.896;2024-02-04T07:02:57;0.90;;;0.80;;
1935;SDS011;969;49.892;10.896;2024-02-04T07:05:23;1.10;;;0.80;;
1935;SDS011;969;49.892;10.896;2024-02-04T07:07:50;1.23;;;0.60;;
1935;SDS011;969;49.892;10.896;2024-02-04T07:10:16;1.00;;;0.70;;
1935;SDS011;969;49.892;10.896;2024-02-04T07:12:42;0.93;;;0.70;;
1935;SDS011;969;49.892;10.896;2024-02-04T07:15:08;0.90;;;0.60;;
1935;SDS011;969;49.892;10.896;2024-02-04T07:17:33;1.30;;;0.80;;
1935;SDS011;969;49.892;10.896;2024-02-04T07:19:59;1.13;;;0.80;;
1935;SDS011;969;49.892;10.896;2024-02-04T07:22:26;0.80;;;0.70;;
1935;SDS011;969;49.892;10.896;2024-02-04T07:24:51;1.17;;;0.90;;
1935;SDS011;969;49.892;10.896;2024-02-04T07:27:17;1.10;;;0.80;;
1935;SDS011;969;49.892;10.896;2024-02-04T07:29:43;1.17;;;0.90;;
1935;SDS011;969;49.892;10.896;2024-02-04T07:32:08;1.10;;;0.90;;
1935;SDS011;969;49.892;10.896;2024-02-04T07:34:34;1.10;;;0.70;;
1935;SDS011;969;49.892;10.896;2024-02-04T07:37:00;1.00;;;0.70;;
1935;SDS011;969;49.892;10.896;2024-02-04T07:39:25;1.40;;;0.70;;
1935;SDS011;969;49.892;10.896;2024-02-04T07:41:51;1.30;;;1.20;;
1935;SDS011;969;49.892;10.896;2024-02-04T07:44:19;1.00;;;0.70;;
1935;SDS011;969;49.892;10.896;2024-02-04T07:46:44;1.00;;;0.70;;
1935;SDS011;969;49.892;10.896;2024-02-04T07:49:10;1.60;;;0.80;;
1935;SDS011;969;49.892;10.896;2024-02-04T07:51:35;1.03;;;0.83;;
1935;SDS011;969;49.892;10.896;2024-02-04T07:54:02;1.67;;;0.83;;
1935;SDS011;969;49.892;10.896;2024-02-04T07:56:28;0.90;;;0.70;;
1935;SDS011;969;49.892;10.896;2024-02-04T07:58:54;0.80;;;0.70;;
1935;SDS011;969;49.892;10.896;2024-02-04T08:01:20;1.30;;;0.90;;
1935;SDS011;969;49.892;10.896;2024-02-04T08:03:45;1.20;;;0.80;;
1935;SDS011;969;49.892;10.896;2024-02-04T08:06:12;0.90;;;0.70;;
1935;SDS011;969;49.892;10.896;2024-02-04T08:08:38;0.93;;;0.70;;
1935;SDS011;969;49.892;10.896;2024-02-04T08:11:03;1.30;;;0.70;;
1935;SDS011;969;49.892;10.896;2024-02-04T08:13:29;1.00;;;0.60;;
1935;SDS011;969;49.892;10.896;2024-02-04T08:15:55;0.93;;;0.70;;
1935;SDS011;969;49.892;10.896;2024-02-04T08:18:20;1.00;;;0.70;;
1935;SDS011;969;49.892;10.896;2024-02-04T08:20:46;1.47;;;0.77;;
1935;SDS011;969;49.892;10.896;2024-02-04T08:23:11;1.20;;;0.80;;
1935;SDS011;969;49.892;10.896;2024-02-04T08:25:37;1.10;;;0.80;;
1935;SDS011;969;49.892;10.896;2024-02-04T08:28:03;1.83;;;0.70;;
1935;SDS011;969;49.892;10.896;2024-02-04T08:30:29;1.07;;;0.70;;
1935;SDS011;969;49.892;10.896;2024-02-04T08:32:54;1.60;;;1.43;;
1935;SDS011;969;49.892;10.896;2024-02-04T08:35:20;3.27;;;0.80;;
1935;SDS011;969;49.892;10.896;2024-02-04T08:37:46;1.00;;;0.70;;
1935;SDS011;969;49.892;10.896;2024-02-04T08:40:11;1.00;;;0.70;;
1935;SDS011;969;49.892;10.896;2024-02-04T08:42:38;1.20;;;0.70;;
1935;SDS011;969;49.892;10.896;2024-02-04T08:45:03;1.97;;;0.90;;
1935;SDS011;969;49.892;10.896;2024-02-04T08:47:30;1.00;;;0.70;;
1935;SDS011;969;49.892;10.896;2024-02-04T08:49:55;0.90;;;0.80;;
1935;SDS011;969;49.892;10.896;2024-02-04T08:52:22;1.00;;;0.80;;
1935;SDS011;969;49.892;10.896;2024-02-04T08:54:49;1.40;;;0.90;;
1935;SDS011;969;49.892;10.896;2024-02-04T08:57:15;1.60;;;0.70;;
1935;SDS011;969;49.892;10.896;2024-02-04T08:59:41;1.23;;;0.80;;
1935;SDS011;969;49.892;10.896;2024-02-04T09:02:07;0.97;;;0.70;;
1935;SDS011;969;49.892;10.896;2024-02-04T09:04:33;1.47;;;0.73;;
1935;SDS011;969;49.892;10.896;2024-02-04T09:07:05;2.20;;;0.97;;
1935;SDS011;969;49.892;10.896;2024-02-04T09:09:33;0.93;;;0.70;;
1935;SDS011;969;49.892;10.896;2024-02-04T09:11:59;2.00;;;1.00;;
1935;SDS011;969;49.892;10.896;2024-02-04T09:14:24;1.43;;;1.00;;
1935;SDS011;969;49.892;10.896;2024-02-04T09:16:50;1.10;;;0.83;;
1935;SDS011;969;49.892;10.896;2024-02-04T09:19:16;1.40;;;1.00;;
1935;SDS011;969;49.892;10.896;2024-02-04T09:21:41;1.00;;;0.90;;
1935;SDS011;969;49.892;10.896;2024-02-04T09:24:07;1.40;;;1.03;;
1935;SDS011;969;49.892;10.896;2024-02-04T09:26:32;1.47;;;1.13;;
1935;SDS011;969;49.892;10.896;2024-02-04T09:28:58;1.63;;;0.90;;
1935;SDS011;969;49.892;10.896;2024-02-04T09:31:24;1.70;;;1.10;;
1935;SDS011;969;49.892;10.896;2024-02-04T09:33:50;1.40;;;1.00;;
1935;SDS011;969;49.892;10.896;2024-02-04T09:36:15;1.73;;;1.33;;
1935;SDS011;969;49.892;10.896;2024-02-04T09:38:41;2.23;;;1.27;;
1935;SDS011;969;49.892;10.896;2024-02-04T09:41:06;2.20;;;1.00;;
1935;SDS011;969;49.892;10.896;2024-02-04T09:43:32;1.30;;;1.03;;
1935;SDS011;969;49.892;10.896;2024-02-04T09:46:00;1.83;;;1.10;;
1935;SDS011;969;49.892;10.896;2024-02-04T09:48:27;1.30;;;1.03;;
1935;SDS011;969;49.892;10.896;2024-02-04T09:50:56;1.30;;;1.13;;
1935;SDS011;969;49.892;10.896;2024-02-04T09:53:31;1.70;;;1.10;;
1935;SDS011;969;49.892;10.896;2024-02-04T09:55:59;1.70;;;1.20;;
1935;SDS011;969;49.892;10.896;2024-02-04T09:58:28;13.63;;;1.80;;
1935;SDS011;969;49.892;10.896;2024-02-04T10:00:54;2.47;;;0.90;;
1935;SDS011;969;49.892;10.896;2024-02-04T10:03:19;1.17;;;0.90;;
1935;SDS011;969;49.892;10.896;2024-02-04T10:05:46;1.13;;;0.83;;
1935;SDS011;969;49.892;10.896;2024-02-04T10:08:12;1.67;;;0.90;;
1935;SDS011;969;49.892;10.896;2024-02-04T10:10:39;1.40;;;1.00;;
1935;SDS011;969;49.892;10.896;2024-02-04T10:13:06;1.27;;;0.90;;
1935;SDS011;969;49.892;10.896;2024-02-04T10:15:33;1.60;;;1.10;;
1935;SDS011;969;49.892;10.896;2024-02-04T10:17:58;1.27;;;0.80;;
1935;SDS011;969;49.892;10.896;2024-02-04T10:20:24;1.40;;;1.00;;
1935;SDS011;969;49.892;10.896;2024-02-04T10:22:49;1.57;;;1.00;;
1935;SDS011;969;49.892;10.896;2024-02-04T10:25:15;2.80;;;1.00;;
1935;SDS011;969;49.892;10.896;2024-02-04T10:27:41;1.37;;;0.90;;
1935;SDS011;969;49.892;10.896;2024-02-04T10:30:07;2.00;;;1.07;;
1935;SDS011;969;49.892;10.896;2024-02-04T10:32:33;2.13;;;0.93;;
1935;SDS011;969;49.892;10.896;2024-02-04T10:34:59;1.37;;;1.10;;
1935;SDS011;969;49.892;10.896;2024-02-04T10:37:26;1.63;;;1.00;;
1935;SDS011;969;49.892;10.896;2024-02-04T10:39:53;2.03;;;1.30;;
1935;SDS011;969;49.892;10.896;2024-02-04T10:42:20;1.10;;;0.80;;
1935;SDS011;969;49.892;10.896;2024-02-04T10:44:52;1.43;;;0.90;;
1935;SDS011;969;49.892;10.896;2024-02-04T10:47:22;2.57;;;1.03;;
1935;SDS011;969;49.892;10.896;2024-02-04T10:49:51;1.33;;;0.87;;
1935;SDS011;969;49.892;10.896;2024-02-04T10:52:20;1.07;;;0.83;;
1935;SDS011;969;49.892;10.896;2024-02-04T10:54:48;1.17;;;0.87;;
1935;SDS011;969;49.892;10.896;2024-02-04T10:57:17;1.37;;;1.17;;
1935;SDS011;969;49.892;10.896;2024-02-04T10:59:51;1.43;;;0.90;;
1935;SDS011;969;49.892;10.896;2024-02-04T11:02:17;2.00;;;0.90;;
1935;SDS011;969;49.892;10.896;2024-02-04T11:04:45;1.20;;;0.90;;
1935;SDS011;969;49.892;10.896;2024-02-04T11:07:14;1.10;;;0.80;;
1935;SDS011;969;49.892;10.896;2024-02-04T11:09:42;1.60;;;1.00;;
1935;SDS011;969;49.892;10.896;2024-02-04T11:12:11;1.10;;;0.80;;
1935;SDS011;969;49.892;10.896;2024-02-04T11:14:39;1.50;;;0.90;;
1935;SDS011;969;49.892;10.896;2024-02-04T11:17:18;5.17;;;1.07;;
1935;SDS011;969;49.892;10.896;2024-02-04T11:28:05;1.20;;;1.00;;
1935;SDS011;969;49.892;10.896;2024-02-04T11:30:34;1.10;;;0.80;;
1935;SDS011;969;49.892;10.896;2024-02-04T11:33:01;1.47;;;0.90;;
1935;SDS011;969;49.892;10.896;2024-02-04T11:35:30;1.30;;;0.83;;
1935;SDS011;969;49.892;10.896;2024-02-04T11:37:59;1.47;;;0.90;;
1935;SDS011;969;49.892;10.896;2024-02-04T11:40:35;1.20;;;0.87;;
1935;SDS011;969;49.892;10.896;2024-02-04T11:45:40;1.93;;;0.73;;
1935;SDS011;969;49.892;10.896;2024-02-04T11:48:06;1.10;;;0.80;;
1935;SDS011;969;49.892;10.896;2024-02-04T11:50:33;0.97;;;0.73;;
1935;SDS011;969;49.892;10.896;2024-02-04T11:53:10;2.90;;;0.77;;
1935;SDS011;969;49.892;10.896;2024-02-04T11:55:38;1.47;;;0.90;;
1935;SDS011;969;49.892;10.896;2024-02-04T11:58:05;2.37;;;1.37;;
1935;SDS011;969;49.892;10.896;2024-02-04T12:00:32;1.27;;;0.93;;
1935;SDS011;969;49.892;10.896;2024-02-04T12:02:59;1.53;;;0.90;;
1935;SDS011;969;49.892;10.896;2024-02-04T12:05:33;1.20;;;0.90;;
1935;SDS011;969;49.892;10.896;2024-02-04T12:08:04;1.20;;;1.00;;
1935;SDS011;969;49.892;10.896;2024-02-04T12:10:31;1.53;;;1.00;;
1935;SDS011;969;49.892;10.896;2024-02-04T12:13:04;1.27;;;0.97;;
1935;SDS011;969;49.892;10.896;2024-02-04T12:15:32;1.63;;;0.97;;
1935;SDS011;969;49.892;10.896;2024-02-04T12:18:06;1.50;;;0.90;;
1935;SDS011;969;49.892;10.896;2024-02-04T12:20:33;1.47;;;0.90;;
1935;SDS011;969;49.892;10.896;2024-02-04T12:22:59;1.10;;;0.70;;
1935;SDS011;969;49.892;10.896;2024-02-04T12:25:24;1.40;;;1.10;;
1935;SDS011;969;49.892;10.896;2024-02-04T12:27:52;1.23;;;0.90;;
1935;SDS011;969;49.892;10.896;2024-02-04T12:30:18;2.03;;;0.90;;
1935;SDS011;969;49.892;10.896;2024-02-04T12:32:44;1.37;;;0.83;;
1935;SDS011;969;49.892;10.896;2024-02-04T12:35:15;1.07;;;0.90;;
1935;SDS011;969;49.892;10.896;2024-02-04T12:37:51;0.97;;;0.70;;
1935;SDS011;969;49.892;10.896;2024-02-04T12:40:27;1.63;;;1.10;;
1935;SDS011;969;49.892;10.896;2024-02-04T12:42:58;1.57;;;0.73;;
1935;SDS011;969;49.892;10.896;2024-02-04T12:45:28;1.10;;;0.83;;
1935;SDS011;969;49.892;10.896;2024-02-04T12:47:57;1.20;;;0.80;;
1935;SDS011;969;49.892;10.896;2024-02-04T12:50:23;3.63;;;0.80;;
1935;SDS011;969;49.892;10.896;2024-02-04T12:53:01;2.23;;;1.20;;
1935;SDS011;969;49.892;10.896;2024-02-04T12:55:29;1.30;;;0.90;;
1935;SDS011;969;49.892;10.896;2024-02-04T13:00:32;3.03;;;1.40;;
1935;SDS011;969;49.892;10.896;2024-02-04T13:02:58;4.10;;;1.50;;
1935;SDS011;969;49.892;10.896;2024-02-04T13:05:24;8.40;;;5.63;;
1935;SDS011;969;49.892;10.896;2024-02-04T13:07:51;6.73;;;3.10;;
1935;SDS011;969;49.892;10.896;2024-02-04T13:10:20;5.73;;;3.37;;
1935;SDS011;969;49.892;10.896;2024-02-04T13:13:03;8.37;;;5.53;;
1935;SDS011;969;49.892;10.896;2024-02-04T13:15:42;7.57;;;4.53;;
1935;SDS011;969;49.892;10.896;2024-02-04T13:18:09;2.70;;;1.77;;
1935;SDS011;969;49.892;10.896;2024-02-04T13:20:40;2.73;;;2.30;;
1935;SDS011;969;49.892;10.896;2024-02-04T13:23:07;4.47;;;2.27;;
1935;SDS011;969;49.892;10.896;2024-02-04T13:25:33;4.30;;;2.90;;
1935;SDS011;969;49.892;10.896;2024-02-04T13:27:59;1.60;;;1.13;;
1935;SDS011;969;49.892;10.896;2024-02-04T13:30:25;6.80;;;2.70;;
1935;SDS011;969;49.892;10.896;2024-02-04T13:32:51;4.03;;;2.53;;
1935;SDS011;969;49.892;10.896;2024-02-04T13:35:17;7.63;;;3.93;;
1935;SDS011;969;49.892;10.896;2024-02-04T13:37:46;4.20;;;2.83;;
1935;SDS011;969;49.892;10.896;2024-02-04T13:40:13;4.13;;;1.60;;
1935;SDS011;969;49.892;10.896;2024-02-04T13:42:40;5.43;;;3.80;;
1935;SDS011;969;49.892;10.896;2024-02-04T13:45:06;5.33;;;3.70;;
1935;SDS011;969;49.892;10.896;2024-02-04T13:47:32;7.87;;;4.67;;
1935;SDS011;969;49.892;10.896;2024-02-04T13:49:57;8.30;;;4.20;;
1935;SDS011;969;49.892;10.896;2024-02-04T13:52:23;11.40;;;8.20;;
1935;SDS011;969;49.892;10.896;2024-02-04T13:54:48;10.00;;;5.67;;
1935;SDS011;969;49.892;10.896;2024-02-04T13:57:14;9.50;;;5.80;;
1935;SDS011;969;49.892;10.896;2024-02-04T13:59:40;10.90;;;5.37;;
1935;SDS011;969;49.892;10.896;2024-02-04T14:02:06;12.70;;;7.80;;
1935;SDS011;969;49.892;10.896;2024-02-04T14:04:33;10.07;;;4.90;;
1935;SDS011;969;49.892;10.896;2024-02-04T14:06:59;12.47;;;7.70;;
1935;SDS011;969;49.892;10.896;2024-02-04T14:09:25;6.50;;;5.37;;
1935;SDS011;969;49.892;10.896;2024-02-04T14:11:52;11.50;;;6.60;;
1935;SDS011;969;49.892;10.896;2024-02-04T14:14:20;12.27;;;6.00;;
1935;SDS011;969;49.892;10.896;2024-02-04T14:16:48;8.83;;;5.80;;
1935;SDS011;969;49.892;10.896;2024-02-04T14:19:14;10.10;;;7.63;;
1935;SDS011;969;49.892;10.896;2024-02-04T14:21:42;9.50;;;6.23;;
1935;SDS011;969;49.892;10.896;2024-02-04T14:24:08;12.47;;;7.83;;
1935;SDS011;969;49.892;10.896;2024-02-04T14:26:34;17.93;;;8.50;;
1935;SDS011;969;49.892;10.896;2024-02-04T14:29:00;10.23;;;6.83;;
1935;SDS011;969;49.892;10.896;2024-02-04T14:31:25;11.60;;;7.20;;
1935;SDS011;969;49.892;10.896;2024-02-04T14:33:51;14.87;;;7.93;;
1935;SDS011;969;49.892;10.896;2024-02-04T14:36:16;12.23;;;7.87;;
1935;SDS011;969;49.892;10.896;2024-02-04T14:38:42;13.30;;;8.27;;
1935;SDS011;969;49.892;10.896;2024-02-04T14:41:08;14.90;;;9.53;;
1935;SDS011;969;49.892;10.896;2024-02-04T14:43:35;12.73;;;7.47;;
1935;SDS011;969;49.892;10.896;2024-02-04T14:46:01;13.00;;;8.63;;
1935;SDS011;969;49.892;10.896;2024-02-04T14:48:26;12.33;;;6.50;;
1935;SDS011;969;49.892;10.896;2024-02-04T14:50:52;11.07;;;6.00;;
1935;SDS011;969;49.892;10.896;2024-02-04T14:53:19;12.23;;;6.80;;
1935;SDS011;969;49.892;10.896;2024-02-04T14:55:44;10.10;;;6.50;;
1935;SDS011;969;49.892;10.896;2024-02-04T14:58:10;8.43;;;5.30;;
1935;SDS011;969;49.892;10.896;2024-02-04T15:00:36;9.20;;;5.50;;
1935;SDS011;969;49.892;10.896;2024-02-04T15:03:01;7.67;;;5.53;;
1935;SDS011;969;49.892;10.896;2024-02-04T15:05:27;8.37;;;5.50;;
1935;SDS011;969;49.892;10.896;2024-02-04T15:07:52;13.67;;;8.20;;
1935;SDS011;969;49.892;10.896;2024-02-04T15:10:19;15.17;;;8.67;;
1935;SDS011;969;49.892;10.896;2024-02-04T15:12:45;12.23;;;7.57;;
1935;SDS011;969;49.892;10.896;2024-02-04T15:15:11;8.20;;;5.27;;
1935;SDS011;969;49.892;10.896;2024-02-04T15:17:37;14.37;;;6.63;;
1935;SDS011;969;49.892;10.896;2024-02-04T15:20:03;11.27;;;6.67;;
1935;SDS011;969;49.892;10.896;2024-02-04T15:22:30;13.53;;;8.30;;
1935;SDS011;969;49.892;10.896;2024-02-04T15:24:56;17.13;;;7.23;;
1935;SDS011;969;49.892;10.896;2024-02-04T15:27:22;13.23;;;6.90;;
1935;SDS011;969;49.892;10.896;2024-02-04T15:29:51;11.40;;;6.23;;
1935;SDS011;969;49.892;10.896;2024-02-04T15:32:18;7.70;;;4.73;;